createdAt,value
2022-09-16T00:00:32.245Z,101377.25
2022-09-16T00:02:59.000Z,101374.81
2022-09-16T00:05:26.215Z,101381.53
2022-09-16T00:07:53.817Z,101384.34
2022-09-16T00:10:21.585Z,101379.91
2022-09-16T00:12:49.149Z,101388.94
2022-09-16T00:15:16.420Z,101388.94
2022-09-16T00:17:43.112Z,101390.44
2022-09-16T00:20:11.084Z,101388.47
2022-09-16T00:22:37.726Z,101387.34
2022-09-16T00:25:04.630Z,101402.38
2022-09-16T00:27:31.300Z,101397.88
2022-09-16T00:29:57.933Z,101397.06
2022-09-16T00:32:25.129Z,101392.63
2022-09-16T00:34:52.476Z,101401.69
2022-09-16T00:37:19.349Z,101401.19
2022-09-16T00:39:49.409Z,101402.09
2022-09-16T00:42:18.128Z,101400.00
2022-09-16T00:45:24.789Z,101407.88
2022-09-16T00:47:59.232Z,101405.56
2022-09-16T00:50:38.482Z,101404.66
2022-09-16T00:53:09.088Z,101408.09
2022-09-16T00:55:37.688Z,101407.19
2022-09-16T00:58:35.338Z,101413.63
2022-09-16T01:01:05.787Z,101407.81
2022-09-16T01:03:43.203Z,101409.88
2022-09-16T01:06:13.448Z,101415.16
2022-09-16T01:08:42.867Z,101420.59
2022-09-16T01:11:09.559Z,101421.13
2022-09-16T01:13:37.567Z,101425.06
2022-09-16T01:16:12.464Z,101421.69
2022-09-16T01:19:07.745Z,101410.78
2022-09-16T01:21:34.310Z,101417.81
2022-09-16T01:24:07.759Z,101407.41
2022-09-16T01:26:50.316Z,101418.03
2022-09-16T01:29:55.661Z,101415.78
2022-09-16T01:32:49.217Z,101416.81
2022-09-16T01:35:57.892Z,101415.03
2022-09-16T01:38:55.573Z,101413.28
2022-09-16T01:41:31.707Z,101418.00
2022-09-16T01:44:06.340Z,101413.94
2022-09-16T01:46:32.898Z,101428.97
2022-09-16T01:49:16.183Z,101413.81
2022-09-16T01:52:01.712Z,101424.31
2022-09-16T01:54:41.383Z,101437.97
2022-09-16T01:57:14.924Z,101429.50
2022-09-16T01:59:46.364Z,101429.72
2022-09-16T02:02:22.066Z,101431.19
2022-09-16T02:04:54.557Z,101434.78
2022-09-16T02:07:27.928Z,101434.97
2022-09-16T02:09:58.140Z,101436.47
2022-09-16T02:12:30.795Z,101432.06
2022-09-16T02:15:03.944Z,101429.16
2022-09-16T02:17:33.275Z,101430.97
2022-09-16T02:20:13.218Z,101434.06
2022-09-16T02:23:11.008Z,101436.69
2022-09-16T02:25:40.310Z,101429.38
2022-09-16T02:28:13.243Z,101443.09
2022-09-16T02:30:49.779Z,101427.47
2022-09-16T02:33:17.882Z,101428.94
2022-09-16T02:35:48.560Z,101432.03
2022-09-16T02:38:21.465Z,101424.72
2022-09-16T02:40:55.479Z,101429.78
2022-09-16T02:43:23.024Z,101432.88
2022-09-16T02:46:06.362Z,101434.69
2022-09-16T02:48:57.472Z,101431.28
2022-09-16T02:51:51.513Z,101439.13
2022-09-16T02:54:33.713Z,101442.22
2022-09-16T02:57:00.389Z,101444.84
2022-09-16T02:59:27.121Z,101445.03
2022-09-16T03:01:53.810Z,101436.38
2022-09-16T03:04:20.772Z,101432.78
2022-09-16T03:06:48.128Z,101449.75
2022-09-16T03:09:18.183Z,101432.31
2022-09-16T03:12:09.804Z,101433.31
2022-09-16T03:14:53.104Z,101431.19
2022-09-16T03:17:35.472Z,101429.09
2022-09-16T03:20:20.898Z,101425.03
2022-09-16T03:23:28.776Z,101419.66
2022-09-16T03:26:01.046Z,101434.63
2022-09-16T03:28:39.295Z,101436.44
2022-09-16T03:31:27.422Z,101434.34
2022-09-16T03:34:13.337Z,101436.63
2022-09-16T03:36:46.047Z,101442.66
2022-09-16T03:39:14.502Z,101438.72
2022-09-16T03:41:41.543Z,101439.88
2022-09-16T03:44:08.201Z,101435.81
2022-09-16T03:46:34.874Z,101439.22
2022-09-16T03:49:01.728Z,101442.00
2022-09-16T03:51:28.347Z,101445.09
2022-09-16T03:53:55.277Z,101444.13
2022-09-16T03:56:24.248Z,101446.72
2022-09-16T03:58:51.724Z,101440.88
2022-09-16T04:01:18.517Z,101439.56
2022-09-16T04:03:45.189Z,101436.63
2022-09-16T04:06:11.781Z,101442.81
2022-09-16T04:08:39.816Z,101448.69
2022-09-16T04:11:06.966Z,101448.53
2022-09-16T04:13:35.271Z,101439.41
2022-09-16T04:16:04.225Z,101445.28
2022-09-16T04:18:32.237Z,101442.03
2022-09-16T04:21:00.255Z,101445.09
2022-09-16T04:23:27.797Z,101457.16
2022-09-16T04:25:59.830Z,101454.06
2022-09-16T04:28:27.644Z,101458.63
2022-09-16T04:30:54.615Z,101453.75
2022-09-16T04:33:21.321Z,101442.19
2022-09-16T04:35:47.995Z,101455.84
2022-09-16T04:38:14.660Z,101449.81
2022-09-16T04:40:41.386Z,101445.75
2022-09-16T04:43:08.062Z,101448.81
2022-09-16T04:45:34.677Z,101455.50
2022-09-16T04:48:01.336Z,101464.94
2022-09-16T04:50:27.936Z,101466.09
2022-09-16T04:52:54.600Z,101462.31
2022-09-16T04:55:23.254Z,101460.19
2022-09-16T04:57:50.463Z,101457.28
2022-09-16T05:00:17.216Z,101466.38
2022-09-16T05:02:45.639Z,101468.34
2022-09-16T05:05:12.602Z,101473.69
2022-09-16T05:07:39.297Z,101478.06
2022-09-16T05:10:06.621Z,101483.13
2022-09-16T05:12:33.300Z,101481.53
2022-09-16T05:15:00.023Z,101471.59
2022-09-16T05:17:49.755Z,101474.97
2022-09-16T05:20:15.857Z,101479.38
2022-09-16T05:22:42.565Z,101477.75
2022-09-16T05:25:09.518Z,101480.50
2022-09-16T05:27:36.246Z,101489.97
2022-09-16T05:30:02.945Z,101492.22
2022-09-16T05:32:29.511Z,101490.09
2022-09-16T05:34:56.354Z,101489.78
2022-09-16T05:37:23.085Z,101498.72
2022-09-16T05:39:49.771Z,101495.78
2022-09-16T05:42:16.513Z,101493.66
2022-09-16T05:44:43.181Z,101497.56
2022-09-16T05:47:09.793Z,101495.28
2022-09-16T05:49:37.201Z,101498.06
2022-09-16T05:52:03.840Z,101497.56
2022-09-16T05:54:31.562Z,101493.66
2022-09-16T05:56:58.190Z,101500.34
2022-09-16T05:59:24.964Z,101502.59
2022-09-16T06:01:51.727Z,101504.84
2022-09-16T06:04:18.484Z,101512.66
2022-09-16T06:06:46.863Z,101508.28
2022-09-16T06:09:23.679Z,101511.69
2022-09-16T06:11:53.178Z,101511.69
2022-09-16T06:14:23.168Z,101511.69
2022-09-16T06:16:50.635Z,101514.94
2022-09-16T06:19:18.481Z,101528.44
2022-09-16T06:21:46.323Z,101527.63
2022-09-16T06:24:15.424Z,101538.03
2022-09-16T06:26:44.056Z,101538.03
2022-09-16T06:29:11.908Z,101545.03
2022-09-16T06:31:40.582Z,101536.72
2022-09-16T06:34:08.869Z,101540.31
2022-09-16T06:36:42.754Z,101539.69
2022-09-16T06:39:12.564Z,101548.16
2022-09-16T06:41:39.155Z,101547.81
2022-09-16T06:44:05.801Z,101550.28
2022-09-16T06:46:32.399Z,101548.81
2022-09-16T06:49:04.324Z,101557.91
2022-09-16T06:51:32.654Z,101568.97
2022-09-16T06:54:01.595Z,101567.84
2022-09-16T06:56:28.315Z,101575.50
2022-09-16T06:58:55.934Z,101580.72
2022-09-16T07:01:25.761Z,101576.50
2022-09-16T07:03:53.071Z,101575.03
2022-09-16T07:06:22.064Z,101572.78
2022-09-16T07:08:49.224Z,101583.19
2022-09-16T07:11:17.135Z,101576.53
2022-09-16T07:13:45.069Z,101584.69
2022-09-16T07:16:15.079Z,101584.03
2022-09-16T07:18:42.709Z,101584.53
2022-09-16T07:21:20.821Z,101591.06
2022-09-16T07:23:48.866Z,101578.84
2022-09-16T07:26:21.578Z,101594.81
2022-09-16T07:28:49.747Z,101593.56
2022-09-16T07:31:20.283Z,101589.81
2022-09-16T07:33:50.390Z,101591.63
2022-09-16T07:36:20.260Z,101590.97
2022-09-16T07:38:49.094Z,101602.56
2022-09-16T07:41:18.990Z,101596.69
2022-09-16T07:43:46.784Z,101614.28
2022-09-16T07:46:17.113Z,101605.31
2022-09-16T07:48:45.272Z,101603.53
2022-09-16T07:51:17.095Z,101599.81
2022-09-16T07:53:44.681Z,101609.41
2022-09-16T07:56:14.195Z,101608.47
2022-09-16T07:58:41.736Z,101618.22
2022-09-16T08:01:09.397Z,101617.56
2022-09-16T08:03:37.603Z,101615.28
2022-09-16T08:06:06.931Z,101619.88
2022-09-16T08:08:34.364Z,101625.75
2022-09-16T08:11:02.184Z,101625.91
2022-09-16T08:13:30.920Z,101624.59
2022-09-16T08:16:06.917Z,101628.00
2022-09-16T08:18:34.884Z,101627.38
2022-09-16T08:21:12.665Z,101634.69
2022-09-16T08:23:40.450Z,101637.81
2022-09-16T08:26:11.092Z,101643.66
2022-09-16T08:28:45.501Z,101653.75
2022-09-16T08:31:24.581Z,101653.75
2022-09-16T08:33:51.288Z,101657.81
2022-09-16T08:36:21.145Z,101663.03
2022-09-16T08:38:50.113Z,101660.41
2022-09-16T08:41:48.504Z,101666.59
2022-09-16T08:44:27.135Z,101661.00
2022-09-16T08:46:55.609Z,101668.56
2022-09-16T08:49:31.314Z,101667.34
2022-09-16T08:52:00.786Z,101666.59
2022-09-16T08:54:34.781Z,101677.19
2022-09-16T08:57:04.891Z,101677.78
2022-09-16T08:59:41.196Z,101683.00
2022-09-16T09:02:48.461Z,101676.38
2022-09-16T09:05:36.537Z,101674.22
2022-09-16T09:08:15.593Z,101680.69
2022-09-16T09:10:45.195Z,101685.72
2022-09-16T09:13:31.093Z,101691.38
2022-09-16T09:16:19.903Z,101697.28
2022-09-16T09:19:11.217Z,101694.66
2022-09-16T09:21:57.064Z,101687.63
2022-09-16T09:24:48.330Z,101691.75
2022-09-16T09:27:26.466Z,101697.38
2022-09-16T09:30:21.417Z,101692.16
2022-09-16T09:33:03.383Z,101694.28
2022-09-16T09:35:53.183Z,101689.44
2022-09-16T09:38:29.117Z,101688.63
2022-09-16T09:41:06.243Z,101698.34
2022-09-16T09:43:45.581Z,101699.16
2022-09-16T09:46:31.909Z,101697.53
2022-09-16T09:49:02.608Z,101707.22
2022-09-16T09:51:41.071Z,101704.81
2022-09-16T09:54:37.703Z,101702.78
2022-09-16T09:57:29.088Z,101710.78
2022-09-16T10:00:14.582Z,101709.66
2022-09-16T10:02:48.936Z,101716.84
2022-09-16T10:05:25.001Z,101707.03
2022-09-16T10:07:55.841Z,101711.81
2022-09-16T10:10:27.440Z,101722.25
2022-09-16T10:12:54.443Z,101702.88
2022-09-16T10:15:29.062Z,101699.97
2022-09-16T10:18:00.168Z,101706.75
2022-09-16T10:20:29.405Z,101720.53
2022-09-16T10:23:19.287Z,101707.72
2022-09-16T10:25:46.132Z,101700.00
2022-09-16T10:28:26.705Z,101711.53
2022-09-16T10:30:56.081Z,101708.38
2022-09-16T10:33:30.511Z,101701.31
2022-09-16T10:36:00.860Z,101684.94
2022-09-16T10:38:46.751Z,101695.81
2022-09-16T10:41:46.010Z,101694.91
2022-09-16T10:44:25.273Z,101681.22
2022-09-16T10:47:00.669Z,101698.91
2022-09-16T10:49:35.499Z,101700.50
2022-09-16T10:52:23.306Z,101698.41
2022-09-16T10:54:50.489Z,101692.22
2022-09-16T10:57:32.122Z,101693.50
2022-09-16T11:00:24.613Z,101680.84
2022-09-16T11:03:12.761Z,101683.25
2022-09-16T11:05:45.395Z,101681.38
2022-09-16T11:08:21.260Z,101685.31
2022-09-16T11:11:03.335Z,101689.06
2022-09-16T11:13:50.494Z,101694.44
2022-09-16T11:16:48.631Z,101695.47
2022-09-16T11:19:31.410Z,101700.09
2022-09-16T11:22:01.122Z,101693.22
2022-09-16T11:24:33.458Z,101698.34
2022-09-16T11:27:08.799Z,101701.53
2022-09-16T11:29:47.225Z,101703.41
2022-09-16T11:33:08.412Z,101693.06
2022-09-16T11:35:47.551Z,101703.59
2022-09-16T11:38:23.180Z,101703.06
2022-09-16T11:41:31.509Z,101698.25
2022-09-16T11:44:25.597Z,101704.56
2022-09-16T11:47:15.936Z,101700.88
2022-09-16T11:50:11.872Z,101711.97
2022-09-16T11:53:25.489Z,101711.47
2022-09-16T11:56:14.977Z,101717.22
2022-09-16T11:58:47.579Z,101715.94
2022-09-16T12:01:39.897Z,101710.25
2022-09-16T12:04:23.564Z,101707.00
2022-09-16T12:06:58.425Z,101706.38
2022-09-16T12:09:34.416Z,101700.00
2022-09-16T12:12:19.790Z,101711.81
2022-09-16T12:14:54.601Z,101716.31
2022-09-16T12:17:25.699Z,101720.38
2022-09-16T12:20:03.771Z,101718.81
2022-09-16T12:22:36.430Z,101709.81
2022-09-16T12:25:15.149Z,101722.81
2022-09-16T12:27:57.877Z,101733.53
2022-09-16T12:30:36.084Z,101726.03
2022-09-16T12:33:21.057Z,101739.56
2022-09-16T12:36:03.289Z,101741.66
2022-09-16T12:38:31.046Z,101733.72
2022-09-16T12:41:06.664Z,101741.59
2022-09-16T12:43:44.974Z,101742.13
2022-09-16T12:46:29.953Z,101735.50
2022-09-16T12:49:25.644Z,101738.31
2022-09-16T12:52:11.910Z,101730.59
2022-09-16T12:55:08.805Z,101727.31
2022-09-16T12:57:51.620Z,101712.22
2022-09-16T13:00:26.087Z,101725.84
2022-09-16T13:03:00.569Z,101720.09
2022-09-16T13:05:33.400Z,101717.88
2022-09-16T13:08:07.867Z,101717.19
2022-09-16T13:11:00.699Z,101721.06
2022-09-16T13:13:35.500Z,101723.50
2022-09-16T13:16:05.332Z,101710.50
2022-09-16T13:18:43.070Z,101717.28
2022-09-16T13:21:23.936Z,101709.63
2022-09-16T13:24:01.897Z,101720.47
2022-09-16T13:26:40.034Z,101707.72
2022-09-16T13:29:26.507Z,101706.00
2022-09-16T13:31:53.565Z,101703.56
2022-09-16T13:34:21.867Z,101721.16
2022-09-16T13:36:48.619Z,101713.59
